Time;durP1;ratioP1;P1;durP2;ratioP2;P2;SDS_P1;SDS_P2;PMS_P1;PMS_P2;Temp;Humidity;BMP_temperature;BMP_pressure;BME280_temperature;BME280_humidity;BME280_pressure;Samples;Min_cycle;Max_cycle;Signal;HPM_P1;HPM_P2
2023/11/27 00:01:57;;;;;;;1.80;0.90;;;;;;;17.49;49.02;96481.60;104436;1268;71701;-39
2023/11/27 00:04:24;;;;;;;1.20;0.80;;;;;;;17.49;48.97;96483.30;104489;1272;61371;-38
2023/11/27 00:06:51;;;;;;;1.20;0.90;;;;;;;17.48;48.97;96478.20;104521;1268;61274;-39
2023/11/27 00:09:17;;;;;;;0.70;0.70;;;;;;;17.49;48.97;96476.66;104685;1269;74675;-37
2023/11/27 00:11:44;;;;;;;0.70;0.60;;;;;;;17.49;49.02;96472.71;104655;1273;61301;-37
2023/11/27 00:14:10;;;;;;;0.80;0.80;;;;;;;17.48;48.97;96474.25;104522;1271;72643;-38
2023/11/27 00:16:37;;;;;;;0.70;0.70;;;;;;;17.48;48.99;96471.15;104712;1272;61332;-38
2023/11/27 00:19:04;;;;;;;0.80;0.80;;;;;;;17.48;49.02;96474.48;105148;1268;61277;-38
2023/11/27 00:21:31;;;;;;;1.00;0.90;;;;;;;17.48;48.98;96467.52;104825;1269;75028;-37
2023/11/27 00:23:57;;;;;;;1.00;0.90;;;;;;;17.47;48.96;96468.77;104514;1272;61185;-39
2023/11/27 00:26:24;;;;;;;1.10;0.70;;;;;;;17.48;49.04;96464.88;104548;1267;73165;-39
2023/11/27 00:28:53;;;;;;;0.80;0.80;;;;;;;17.47;49.04;96460.09;105101;1273;61252;-38
2023/11/27 00:31:20;;;;;;;1.10;0.90;;;;;;;17.48;49.00;96455.84;104750;1267;61239;-38
2023/11/27 00:33:47;;;;;;;1.30;0.90;;;;;;;17.48;48.99;96455.30;104723;1268;74562;-38
2023/11/27 00:36:14;;;;;;;0.80;0.80;;;;;;;17.47;48.99;96450.13;104626;1274;65451;-37
2023/11/27 00:38:41;;;;;;;0.70;0.70;;;;;;;17.48;48.99;96451.36;104476;1268;72582;-37
2023/11/27 00:41:07;;;;;;;1.20;0.80;;;;;;;17.47;49.00;96444.92;104491;1273;61272;-37
2023/11/27 00:43:34;;;;;;;1.00;0.80;;;;;;;17.47;48.98;96438.52;104625;1268;61364;-37
2023/11/27 00:46:01;;;;;;;1.10;1.00;;;;;;;17.47;48.97;96437.75;104532;1270;74892;-38
2023/11/27 00:48:28;;;;;;;0.90;0.80;;;;;;;17.47;48.99;96438.13;104640;1272;65700;-38
2023/11/27 00:50:54;;;;;;;1.90;0.70;;;;;;;17.47;48.96;96435.88;104498;1272;72875;-38
2023/11/27 00:53:21;;;;;;;0.90;0.90;;;;;;;17.47;49.04;96431.40;104577;1273;61266;-38
2023/11/27 00:55:47;;;;;;;1.00;0.90;;;;;;;17.47;48.96;96433.02;104629;1272;61357;-38
2023/11/27 00:58:15;;;;;;;0.70;0.70;;;;;;;17.46;49.02;96434.87;104583;1273;74618;-37
2023/11/27 01:00:42;;;;;;;1.00;0.90;;;;;;;17.46;48.99;96426.12;104550;1272;65424;-36
2023/11/27 01:03:08;;;;;;;1.30;1.00;;;;;;;17.46;48.96;96429.20;104479;1267;72629;-39
2023/11/27 01:05:36;;;;;;;0.90;0.70;;;;;;;17.46;48.92;96425.11;104654;1272;61180;-39
2023/11/27 01:08:02;;;;;;;1.10;0.80;;;;;;;17.46;48.97;96425.90;104621;1269;61285;-39
2023/11/27 01:10:30;;;;;;;0.90;0.90;;;;;;;17.46;49.02;96424.95;104486;1273;74620;-37
2023/11/27 01:12:57;;;;;;;0.70;0.70;;;;;;;17.45;48.99;96425.88;104761;1274;66070;-37
2023/11/27 01:15:24;;;;;;;1.10;1.00;;;;;;;17.45;49.01;96426.18;104746;1273;72670;-38
2023/11/27 01:17:50;;;;;;;0.80;0.80;;;;;;;17.45;48.95;96428.75;104635;1273;61318;-38
2023/11/27 01:20:19;;;;;;;1.20;0.80;;;;;;;17.45;48.97;96428.20;104778;1268;61299;-38
2023/11/27 01:22:46;;;;;;;1.00;0.90;;;;;;;17.45;48.95;96429.59;104601;1268;74438;-37
2023/11/27 01:25:12;;;;;;;1.00;0.80;;;;;;;17.45;48.93;96431.30;104725;1268;61213;-36
2023/11/27 01:27:39;;;;;;;0.80;0.80;;;;;;;17.45;48.94;96427.81;104661;1267;71766;-38
2023/11/27 01:30:06;;;;;;;1.30;0.90;;;;;;;17.45;48.92;96423.56;104477;1273;61196;-38
2023/11/27 01:32:33;;;;;;;1.30;0.90;;;;;;;17.45;48.91;96421.70;104574;1268;61398;-37
2023/11/27 01:35:00;;;;;;;1.20;0.80;;;;;;;17.44;48.90;96422.56;104680;1267;74637;-39
2023/11/27 01:37:27;;;;;;;1.10;1.00;;;;;;;17.44;48.96;96419.92;104500;1272;65552;-38
2023/11/27 01:39:53;;;;;;;0.80;0.80;;;;;;;17.44;48.96;96419.54;104498;1268;72577;-38
2023/11/27 01:42:20;;;;;;;1.30;1.00;;;;;;;17.44;48.91;96412.56;104706;1273;62053;-38
2023/11/27 01:44:46;;;;;;;1.20;1.00;;;;;;;17.44;48.93;96406.23;104738;1268;61262;-37
2023/11/27 01:47:13;;;;;;;0.90;0.90;;;;;;;17.44;48.97;96406.55;104589;1273;74709;-38
2023/11/27 01:49:39;;;;;;;0.90;0.80;;;;;;;17.44;48.96;96399.73;104366;1276;67209;-38
2023/11/27 01:52:06;;;;;;;1.10;0.90;;;;;;;17.44;48.95;96397.81;104673;1268;71617;-37
2023/11/27 01:54:36;;;;;;;0.70;0.70;;;;;;;17.44;48.92;96400.89;104627;1273;61304;-37
2023/11/27 01:57:04;;;;;;;1.80;0.80;;;;;;;17.43;48.94;96404.36;104724;1268;61236;-37
2023/11/27 01:59:30;;;;;;;0.70;0.70;;;;;;;17.44;48.94;96403.76;104625;1271;74466;-37
2023/11/27 02:01:57;;;;;;;0.90;0.70;;;;;;;17.43;48.85;96400.11;104326;1276;65988;-38
2023/11/27 02:04:25;;;;;;;1.10;0.90;;;;;;;17.43;48.88;96407.77;104281;1271;72573;-37
2023/11/27 02:06:51;;;;;;;0.80;0.80;;;;;;;17.43;48.90;96404.52;104374;1270;61349;-37
2023/11/27 02:09:18;;;;;;;1.30;1.00;;;;;;;17.43;48.91;96403.81;104480;1270;61423;-37
2023/11/27 02:11:48;;;;;;;1.10;0.90;;;;;;;17.42;48.92;96405.37;104590;1273;74605;-37
2023/11/27 02:14:16;;;;;;;0.80;0.70;;;;;;;17.43;48.91;96400.27;104626;1273;66250;-37
2023/11/27 02:16:46;;;;;;;0.90;0.80;;;;;;;17.42;48.94;96397.79;104479;1271;73514;-38
2023/11/27 02:19:16;;;;;;;0.80;0.80;;;;;;;17.41;48.99;96398.94;104574;1273;61285;-38
2023/11/27 02:21:43;;;;;;;0.80;0.80;;;;;;;17.42;48.92;96398.48;104469;1271;61355;-38
2023/11/27 02:24:10;;;;;;;1.00;0.80;;;;;;;17.41;48.96;96395.30;104712;1271;74611;-40
2023/11/27 02:26:37;;;;;;;1.00;0.90;;;;;;;17.41;48.97;96397.62;104448;1275;66067;-39
2023/11/27 02:29:04;;;;;;;1.20;0.80;;;;;;;17.42;48.90;96399.64;104908;1271;72636;-38
2023/11/27 02:31:31;;;;;;;1.10;0.90;;;;;;;17.41;48.92;96397.00;104546;1273;61313;-38
2023/11/27 02:33:58;;;;;;;0.80;0.80;;;;;;;17.42;48.92;96396.16;104573;1271;61445;-38
2023/11/27 02:36:25;;;;;;;1.30;1.00;;;;;;;17.42;48.89;96400.48;104642;1271;74623;-37
2023/11/27 02:38:52;;;;;;;1.50;1.00;;;;;;;17.42;48.87;96399.25;104496;1273;65898;-37
2023/11/27 02:41:19;;;;;;;1.00;0.90;;;;;;;17.42;48.95;96400.09;104607;1271;72728;-38
2023/11/27 02:43:48;;;;;;;1.20;1.10;;;;;;;17.41;48.90;96401.10;104498;1274;61314;-38
2023/11/27 02:46:15;;;;;;;0.80;0.70;;;;;;;17.41;48.98;96404.89;104399;1271;61377;-38
2023/11/27 02:48:42;;;;;;;0.80;0.80;;;;;;;17.41;48.97;96407.13;104584;1271;74652;-38
2023/11/27 02:51:09;;;;;;;1.50;0.90;;;;;;;17.41;48.92;96405.42;104536;1276;61176;-37
2023/11/27 02:53:36;;;;;;;1.00;0.90;;;;;;;17.41;48.90;96415.40;104652;1268;72666;-38
2023/11/27 02:56:03;;;;;;;1.00;0.80;;;;;;;17.41;48.94;96412.23;104515;1274;61269;-37
2023/11/27 02:58:30;;;;;;;1.00;0.80;;;;;;;17.41;48.92;96412.98;104584;1268;61277;-37
2023/11/27 03:00:57;;;;;;;0.60;0.60;;;;;;;17.41;48.92;96410.29;104577;1270;73805;-38
2023/11/27 03:03:24;;;;;;;1.30;0.70;;;;;;;17.41;48.91;96410.14;104415;1274;66027;-37
2023/11/27 03:05:50;;;;;;;1.30;1.00;;;;;;;17.40;48.85;96401.80;104508;1268;72428;-38
2023/11/27 03:08:17;;;;;;;1.00;0.90;;;;;;;17.40;48.88;96399.32;104590;1274;61248;-38
2023/11/27 03:10:44;;;;;;;1.00;0.90;;;;;;;17.40;48.89;96402.09;104717;1269;61370;-38
2023/11/27 03:13:10;;;;;;;1.10;1.00;;;;;;;17.40;48.86;96404.95;104729;1273;74677;-38
2023/11/27 03:15:37;;;;;;;2.30;0.90;;;;;;;17.39;48.90;96410.98;104576;1273;65765;-37
2023/11/27 03:18:03;;;;;;;1.10;1.00;;;;;;;17.39;48.95;96415.69;104601;1268;61299;-37
2023/11/27 03:20:30;;;;;;;1.10;1.00;;;;;;;17.39;48.84;96411.82;104545;1273;61306;-37
2023/11/27 03:22:57;;;;;;;0.80;0.80;;;;;;;17.39;48.88;96412.43;104470;1268;61265;-37
2023/11/27 03:25:23;;;;;;;1.20;1.10;;;;;;;17.39;48.86;96421.10;104566;1270;74578;-38
2023/11/27 03:27:50;;;;;;;1.20;0.90;;;;;;;17.39;48.86;96428.29;104541;1274;65950;-37
2023/11/27 03:30:19;;;;;;;1.00;0.70;;;;;;;17.39;48.92;96434.79;104430;1268;72688;-38
2023/11/27 03:32:46;;;;;;;0.80;0.80;;;;;;;17.38;48.94;96437.02;104461;1273;61268;-38
2023/11/27 03:35:13;;;;;;;0.80;0.80;;;;;;;17.39;48.89;96442.36;104558;1269;61292;-38
2023/11/27 03:37:40;;;;;;;1.20;1.00;;;;;;;17.39;48.91;96454.65;104460;1268;74697;-38
2023/11/27 03:40:07;;;;;;;0.90;0.90;;;;;;;17.38;48.89;96455.96;104541;1272;65594;-38
2023/11/27 03:42:34;;;;;;;1.20;0.90;;;;;;;17.39;48.87;96449.41;104503;1268;72587;-38
2023/11/27 03:45:01;;;;;;;1.00;0.90;;;;;;;17.39;48.86;96453.36;104736;1274;61200;-37
2023/11/27 03:47:28;;;;;;;1.30;1.10;;;;;;;17.39;48.84;96457.45;104580;1268;61348;-37
2023/11/27 03:49:55;;;;;;;2.70;1.00;;;;;;;17.39;48.94;96460.00;104476;1268;74648;-37
2023/11/27 03:52:22;;;;;;;1.00;0.90;;;;;;;17.39;48.94;96462.79;104345;1274;65692;-38
2023/11/27 03:54:49;;;;;;;1.10;0.80;;;;;;;17.39;48.88;96467.18;104544;1273;72637;-38
2023/11/27 03:57:16;;;;;;;1.90;0.80;;;;;;;17.39;48.89;96466.88;104493;1274;61291;-37
2023/11/27 03:59:42;;;;;;;0.70;0.70;;;;;;;17.39;48.78;96468.81;104650;1268;61310;-37
2023/11/27 04:02:09;;;;;;;1.20;0.90;;;;;;;17.40;48.87;96470.98;104439;1268;74439;-37
2023/11/27 04:04:38;;;;;;;0.80;0.80;;;;;;;17.39;48.81;96476.09;104512;1273;66308;-38
2023/11/27 04:07:05;;;;;;;0.80;0.80;;;;;;;17.40;48.84;96477.87;104367;1268;71660;-38
2023/11/27 04:09:32;;;;;;;0.80;0.70;;;;;;;17.39;48.80;96471.05;104448;1274;61259;-38
2023/11/27 04:11:58;;;;;;;2.00;0.90;;;;;;;17.40;48.75;96480.12;104476;1268;61375;-38
2023/11/27 04:14:25;;;;;;;1.00;0.90;;;;;;;17.40;48.80;96480.58;104454;1268;61451;-38
2023/11/27 04:16:51;;;;;;;1.00;0.80;;;;;;;17.40;48.81;96476.56;104409;1272;61262;-37
2023/11/27 04:19:18;;;;;;;0.90;0.70;;;;;;;17.40;48.67;96480.28;104438;1268;72630;-37
2023/11/27 04:21:45;;;;;;;0.80;0.80;;;;;;;17.40;48.86;96482.20;104526;1274;61244;-37
2023/11/27 04:24:12;;;;;;;1.10;0.80;;;;;;;17.40;48.76;96492.25;104614;1268;61287;-37
2023/11/27 04:26:38;;;;;;;0.80;0.80;;;;;;;17.40;48.75;96486.85;104648;1268;61284;-39
2023/11/27 04:29:05;;;;;;;1.00;0.90;;;;;;;17.40;48.73;96487.70;105083;1273;66823;-38
2023/11/27 04:31:33;;;;;;;0.70;0.70;;;;;;;17.40;48.68;96484.98;104776;1268;72607;-38
2023/11/27 04:33:59;;;;;;;1.20;0.90;;;;;;;17.40;48.81;96488.02;105024;1273;61390;-38
2023/11/27 04:36:26;;;;;;;1.30;1.00;;;;;;;17.41;48.76;96486.54;104697;1268;61316;-36
2023/11/27 04:38:53;;;;;;;1.00;0.90;;;;;;;17.41;48.70;96488.63;104562;1268;74640;-38
2023/11/27 04:41:20;;;;;;;0.80;0.80;;;;;;;17.41;48.72;96488.56;104473;1274;65328;-37
2023/11/27 04:43:46;;;;;;;2.20;1.10;;;;;;;17.41;48.80;96484.08;104493;1268;72641;-37
2023/11/27 04:46:13;;;;;;;0.80;0.80;;;;;;;17.41;48.67;96485.92;104576;1273;61282;-37
2023/11/27 04:48:40;;;;;;;0.90;0.90;;;;;;;17.42;48.68;96494.14;104672;1268;61242;-37
2023/11/27 04:51:07;;;;;;;0.90;0.80;;;;;;;17.41;48.69;96492.96;104665;1270;75649;-38
2023/11/27 04:53:34;;;;;;;0.90;0.80;;;;;;;17.42;48.68;96500.80;104423;1274;65473;-37
2023/11/27 04:56:00;;;;;;;0.90;0.80;;;;;;;17.43;48.69;96505.44;104573;1268;72684;-37
2023/11/27 04:58:27;;;;;;;0.70;0.70;;;;;;;17.42;48.69;96507.44;104409;1272;61394;-37
2023/11/27 05:00:55;;;;;;;0.80;0.60;;;;;;;17.43;48.62;96509.45;104506;1268;61206;-37
2023/11/27 05:03:22;;;;;;;1.50;0.70;;;;;;;17.43;48.72;96511.08;104583;1270;74561;-39
2023/11/27 05:05:50;;;;;;;0.80;0.80;;;;;;;17.43;48.68;96513.48;104542;1273;65750;-39
2023/11/27 05:08:17;;;;;;;1.10;0.90;;;;;;;17.43;48.68;96514.33;104658;1268;72510;-37
2023/11/27 05:10:43;;;;;;;2.10;1.10;;;;;;;17.44;48.65;96517.65;104622;1268;61357;-38
2023/11/27 05:13:13;;;;;;;1.00;0.90;;;;;;;17.43;48.65;96520.36;104624;1269;61236;-38
2023/11/27 05:15:40;;;;;;;1.40;1.00;;;;;;;17.44;48.63;96522.23;104731;1273;74454;-37
2023/11/27 05:18:07;;;;;;;0.90;0.90;;;;;;;17.44;48.58;96521.92;104593;1274;65986;-38
2023/11/27 05:20:33;;;;;;;0.70;0.70;;;;;;;17.44;48.67;96521.38;104716;1268;72614;-37
2023/11/27 05:23:03;;;;;;;0.80;0.80;;;;;;;17.45;48.56;96525.26;104579;1274;61263;-38
2023/11/27 05:25:30;;;;;;;1.40;0.90;;;;;;;17.44;48.58;96528.48;104693;1268;61366;-38
2023/11/27 05:27:56;;;;;;;0.90;0.80;;;;;;;17.45;48.70;96535.38;104601;1269;73374;-38
2023/11/27 05:30:24;;;;;;;0.80;0.80;;;;;;;17.45;48.67;96541.65;104576;1274;67159;-38
2023/11/27 05:32:51;;;;;;;0.80;0.80;;;;;;;17.45;48.61;96544.35;104582;1268;72633;-38
2023/11/27 05:35:18;;;;;;;1.00;0.80;;;;;;;17.45;48.61;96546.75;104550;1274;61260;-38
2023/11/27 05:37:45;;;;;;;1.40;1.00;;;;;;;17.46;48.66;96550.69;104632;1268;61223;-39
2023/11/27 05:40:13;;;;;;;1.00;0.90;;;;;;;17.46;48.65;96547.06;104524;1269;75394;-39
2023/11/27 05:42:40;;;;;;;1.00;0.80;;;;;;;17.46;48.66;96545.28;104579;1273;66134;-38
2023/11/27 05:45:10;;;;;;;0.80;0.80;;;;;;;17.46;48.61;96548.92;104668;1268;72610;-38
2023/11/27 05:47:40;;;;;;;1.20;0.80;;;;;;;17.46;48.56;96550.40;104585;1274;61260;-38
2023/11/27 05:50:15;;;;;;;0.60;0.60;;;;;;;17.46;48.67;96557.67;104673;1268;61873;-37
2023/11/27 05:52:41;;;;;;;0.80;0.70;;;;;;;17.46;48.68;96558.61;104480;1274;74566;-39
2023/11/27 05:55:08;;;;;;;1.00;0.90;;;;;;;17.47;48.62;96559.23;104626;1274;66664;-37
2023/11/27 05:57:35;;;;;;;0.80;0.80;;;;;;;17.47;48.58;96562.23;104495;1271;72655;-37
2023/11/27 06:00:03;;;;;;;1.40;0.90;;;;;;;17.47;48.65;96567.20;104678;1274;61257;-36
2023/11/27 06:02:38;;;;;;;1.40;0.90;;;;;;;17.47;48.61;96571.15;104672;1268;61332;-39
2023/11/27 06:05:05;;;;;;;0.80;0.80;;;;;;;17.47;48.64;96572.54;104651;1273;74646;-39
2023/11/27 06:07:35;;;;;;;1.00;0.90;;;;;;;17.47;48.52;96572.92;104825;1273;65160;-40
2023/11/27 06:10:06;;;;;;;1.00;0.90;;;;;;;17.48;48.59;96578.42;104759;1269;72554;-38
2023/11/27 06:12:34;;;;;;;0.90;0.80;;;;;;;17.48;48.68;96579.19;104535;1274;61205;-38
2023/11/27 06:15:01;;;;;;;1.10;0.90;;;;;;;17.48;48.64;96581.89;104638;1268;61952;-38
2023/11/27 06:17:28;;;;;;;0.80;0.80;;;;;;;17.48;48.62;96586.14;104516;1269;74857;-38
2023/11/27 06:19:54;;;;;;;1.00;0.90;;;;;;;17.48;48.65;96586.06;104545;1272;66301;-38
2023/11/27 06:22:21;;;;;;;1.60;0.80;;;;;;;17.48;48.64;96588.30;104624;1268;72536;-37
2023/11/27 06:24:48;;;;;;;2.80;0.80;;;;;;;17.48;48.70;96588.16;104545;1273;61277;-37
2023/11/27 06:27:15;;;;;;;1.10;0.80;;;;;;;17.48;48.85;96589.40;104457;1268;61349;-38
2023/11/27 06:29:41;;;;;;;0.80;0.80;;;;;;;17.49;48.99;96588.34;104668;1268;74336;-37
2023/11/27 06:32:08;;;;;;;1.30;1.00;;;;;;;17.50;49.13;96588.66;104441;1273;65927;-39
2023/11/27 06:34:35;;;;;;;5.90;0.90;;;;;;;17.50;49.24;96591.61;104461;1269;72415;-37
2023/11/27 06:37:02;;;;;;;2.10;1.00;;;;;;;17.51;49.39;96595.70;104535;1274;61272;-39
2023/11/27 06:39:29;;;;;;;4.30;1.40;;;;;;;17.52;49.41;96594.58;104531;1268;61240;-39
2023/11/27 06:41:58;;;;;;;3.80;1.40;;;;;;;17.54;50.09;96599.79;104618;1269;74690;-40
2023/11/27 06:44:25;;;;;;;2.10;1.10;;;;;;;17.58;50.63;96600.85;104354;1274;65554;-40
2023/11/27 06:46:51;;;;;;;1.30;1.10;;;;;;;17.61;50.70;96597.33;104501;1268;72808;-39
2023/11/27 06:49:18;;;;;;;5.00;1.50;;;;;;;17.65;50.75;96597.98;104416;1274;61317;-38
2023/11/27 06:51:45;;;;;;;1.30;1.00;;;;;;;17.68;50.65;96594.64;104580;1268;61346;-38
2023/11/27 06:54:12;;;;;;;2.40;1.00;;;;;;;17.71;50.53;96596.44;104326;1269;75251;-38
2023/11/27 06:56:40;;;;;;;2.00;1.10;;;;;;;17.74;50.44;96596.70;104393;1274;65727;-39
2023/11/27 06:59:07;;;;;;;1.70;1.00;;;;;;;17.77;50.21;96595.19;104300;1268;72683;-38
2023/11/27 07:01:41;;;;;;;6.50;1.20;;;;;;;17.79;50.23;96593.28;104253;1276;62801;-34
2023/11/27 07:04:08;;;;;;;2.80;1.10;;;;;;;17.81;50.24;96594.07;104640;1271;61361;-37
2023/11/27 07:06:36;;;;;;;3.70;1.30;;;;;;;17.82;50.34;96598.10;104640;1269;74470;-36
2023/11/27 07:09:07;;;;;;;3.30;1.30;;;;;;;17.84;50.39;96597.89;104214;1274;66175;-37
2023/11/27 07:11:34;;;;;;;3.40;1.20;;;;;;;17.86;50.43;96610.06;104406;1268;72697;-37
2023/11/27 07:14:01;;;;;;;5.20;1.40;;;;;;;17.87;50.60;96609.06;104245;1274;61269;-37
2023/11/27 07:16:28;;;;;;;2.40;1.00;;;;;;;17.87;50.91;96607.83;104754;1268;61271;-37
2023/11/27 07:18:58;;;;;;;2.40;1.10;;;;;;;17.89;51.01;96610.56;105063;1268;75177;-38
2023/11/27 07:21:28;;;;;;;1.80;1.10;;;;;;;17.90;51.26;96606.32;108360;1268;66312;-39
2023/11/27 07:23:56;;;;;;;1.70;1.10;;;;;;;17.92;51.40;96610.37;108248;1268;72880;-37
2023/11/27 07:26:24;;;;;;;1.70;1.10;;;;;;;17.93;51.41;96614.25;108334;1268;60443;-39
2023/11/27 07:28:51;;;;;;;2.50;1.30;;;;;;;17.94;51.02;96614.19;105060;1272;61220;-38
2023/11/27 07:31:17;;;;;;;2.40;1.40;;;;;;;17.96;50.95;96616.84;105716;1271;74506;-38
2023/11/27 07:33:44;;;;;;;1.60;1.00;;;;;;;17.97;50.78;96620.25;104099;1276;66293;-39
2023/11/27 07:36:11;;;;;;;2.30;1.30;;;;;;;17.98;50.71;96618.79;105007;1269;73129;-38
2023/11/27 07:38:40;;;;;;;1.50;1.10;;;;;;;17.98;50.55;96616.93;104524;1274;61326;-38
2023/11/27 07:41:07;;;;;;;3.00;1.20;;;;;;;17.99;50.41;96615.80;104572;1273;61378;-36
2023/11/27 07:43:34;;;;;;;2.60;1.30;;;;;;;17.99;50.35;96616.33;104351;1273;74597;-39
2023/11/27 07:46:05;;;;;;;3.10;1.10;;;;;;;17.99;50.37;96618.82;104409;1273;67278;-38
2023/11/27 07:48:36;;;;;;;1.40;1.00;;;;;;;17.99;50.29;96617.80;104296;1274;71450;-38
2023/11/27 07:51:06;;;;;;;5.30;1.00;;;;;;;17.99;50.16;96616.95;104345;1274;61256;-47
2023/11/27 07:53:33;;;;;;;6.20;1.60;;;;;;;17.99;50.22;96610.84;104199;1273;61338;-41
2023/11/27 07:56:00;;;;;;;6.70;1.70;;;;;;;17.98;50.32;96617.02;104114;1273;75208;-44
2023/11/27 07:58:27;;;;;;;5.60;1.90;;;;;;;17.99;50.26;96620.20;104121;1273;67144;-42
2023/11/27 08:00:54;;;;;;;4.00;1.30;;;;;;;17.98;50.27;96619.34;104202;1268;72396;-41
2023/11/27 08:03:21;;;;;;;4.10;1.30;;;;;;;17.99;50.38;96621.44;104102;1273;61294;-42
2023/11/27 08:05:48;;;;;;;5.80;1.30;;;;;;;17.99;50.34;96621.98;104292;1269;61292;-41
2023/11/27 08:08:15;;;;;;;3.70;1.30;;;;;;;17.99;50.29;96619.43;104488;1272;75410;-43
2023/11/27 08:10:42;;;;;;;3.00;1.40;;;;;;;17.99;50.28;96615.48;104487;1274;66588;-41
2023/11/27 08:13:09;;;;;;;4.20;1.60;;;;;;;17.99;50.47;96616.02;104085;1274;72734;-40
2023/11/27 08:15:36;;;;;;;3.50;1.20;;;;;;;17.99;50.42;96617.13;104266;1273;61322;-37
2023/11/27 08:18:04;;;;;;;5.60;1.40;;;;;;;18.00;50.46;96619.29;104115;1268;61271;-41
2023/11/27 08:20:33;;;;;;;2.60;1.30;;;;;;;18.00;50.53;96613.09;104280;1277;74652;-44
2023/11/27 08:23:04;;;;;;;3.80;1.30;;;;;;;18.01;50.56;96616.02;104264;1274;66245;-39
2023/11/27 08:25:34;;;;;;;3.00;1.20;;;;;;;18.01;50.70;96619.45;104535;1277;73136;-37
2023/11/27 08:28:02;;;;;;;6.00;1.40;;;;;;;18.02;50.83;96622.16;104283;1273;61221;-37
2023/11/27 08:30:32;;;;;;;6.00;1.20;;;;;;;18.02;51.00;96621.70;104456;1268;61266;-41
2023/11/27 08:32:59;;;;;;;3.60;1.50;;;;;;;18.03;50.96;96621.41;104135;1269;74813;-39
2023/11/27 08:35:26;;;;;;;4.00;1.20;;;;;;;18.04;51.13;96614.30;104451;1272;66567;-45
2023/11/27 08:37:53;;;;;;;2.50;1.00;;;;;;;18.05;51.16;96610.20;104146;1270;72610;-39
2023/11/27 08:40:21;;;;;;;3.40;1.30;;;;;;;18.06;51.31;96601.86;104425;1274;61259;-40
2023/11/27 08:42:48;;;;;;;1.60;1.10;;;;;;;18.08;51.28;96603.88;104302;1273;61360;-42
2023/11/27 08:45:18;;;;;;;2.50;1.20;;;;;;;18.08;51.20;96602.43;104594;1271;74407;-41
2023/11/27 08:47:51;;;;;;;2.30;1.10;;;;;;;18.09;51.18;96603.52;104100;1275;66122;-41
2023/11/27 08:50:32;;;;;;;2.20;1.30;;;;;;;18.10;51.06;96599.96;104514;1269;72477;-42
2023/11/27 08:52:59;;;;;;;2.50;1.20;;;;;;;18.11;51.09;96605.70;104613;1273;61278;-40
2023/11/27 08:55:30;;;;;;;2.00;1.10;;;;;;;18.11;50.97;96602.23;104659;1272;61220;-42
2023/11/27 08:58:03;;;;;;;2.80;1.40;;;;;;;18.11;50.95;96600.83;104800;1272;73895;-40
2023/11/27 09:00:31;;;;;;;1.80;1.20;;;;;;;18.12;50.83;96606.64;105116;1272;67050;-45
2023/11/27 09:02:58;;;;;;;1.90;1.20;;;;;;;18.12;50.94;96598.73;104601;1274;72450;-42
2023/11/27 09:05:30;;;;;;;1.20;1.00;;;;;;;18.12;50.98;96595.65;104539;1276;61306;-39
2023/11/27 09:08:00;;;;;;;3.30;1.30;;;;;;;18.13;50.93;96588.84;104470;1273;59818;-41
2023/11/27 09:10:26;;;;;;;2.60;1.10;;;;;;;18.13;50.86;96593.26;104518;1281;74463;-38
2023/11/27 09:12:53;;;;;;;1.60;1.20;;;;;;;18.13;50.87;96595.74;104186;1274;67146;-42
2023/11/27 09:15:21;;;;;;;1.80;1.00;;;;;;;18.14;50.91;96591.55;104148;1273;72524;-37
2023/11/27 09:17:48;;;;;;;2.10;1.20;;;;;;;18.15;51.07;96590.17;104097;1274;61365;-39
2023/11/27 09:20:17;;;;;;;2.70;1.20;;;;;;;18.15;51.42;96587.63;103972;1273;61361;-38
2023/11/27 09:22:44;;;;;;;4.60;1.10;;;;;;;18.16;51.59;96592.29;104186;1273;74985;-40
2023/11/27 09:25:12;;;;;;;1.60;1.10;;;;;;;18.18;51.63;96591.68;104367;1270;66788;-41
2023/11/27 09:27:40;;;;;;;1.10;1.00;;;;;;;18.19;51.84;96591.38;104358;1269;72538;-42
2023/11/27 09:30:07;;;;;;;1.80;0.90;;;;;;;18.20;51.90;96605.95;104181;1273;61794;-38
2023/11/27 09:32:36;;;;;;;4.90;1.00;;;;;;;18.20;52.00;96595.42;104428;1268;146620;-38
2023/11/27 09:35:10;;;;;;;2.00;1.00;;;;;;;18.23;51.97;96595.45;104269;1270;74474;-36
2023/11/27 09:37:38;;;;;;;1.90;1.00;;;;;;;18.24;52.09;96595.99;104333;1272;68060;-36
2023/11/27 09:40:08;;;;;;;2.70;1.30;;;;;;;18.25;52.09;96592.84;104544;1274;73524;-39
2023/11/27 09:42:38;;;;;;;2.70;1.00;;;;;;;18.25;52.01;96592.06;104242;1273;61316;-42
2023/11/27 09:45:18;;;;;;;1.80;1.10;;;;;;;18.27;52.03;96587.98;104166;1270;61304;-39
2023/11/27 09:47:48;;;;;;;5.40;1.30;;;;;;;18.27;52.06;96589.06;104468;1270;74605;-39
2023/11/27 09:50:16;;;;;;;2.80;1.00;;;;;;;18.28;52.11;96580.02;104229;1273;65220;-40
2023/11/27 09:52:52;;;;;;;2.50;1.40;;;;;;;18.28;52.23;96581.09;104305;1272;73002;-41
2023/11/27 09:55:20;;;;;;;;;;;;;;;18.29;52.32;96585.36;104427;1273;61370;-39
2023/11/27 09:57:47;;;;;;;2.00;1.00;;;;;;;18.29;52.31;96578.25;104520;1274;61305;-39
2023/11/27 10:00:17;;;;;;;2.40;1.20;;;;;;;18.29;52.25;96584.05;104407;1273;73899;-38
2023/11/27 10:02:48;;;;;;;4.50;1.40;;;;;;;18.30;52.41;96581.27;104271;1273;66891;-33
2023/11/27 10:05:19;;;;;;;4.30;1.50;;;;;;;18.31;52.57;96583.52;104325;1271;72361;-42
2023/11/27 10:07:49;;;;;;;3.40;1.30;;;;;;;18.32;52.51;96582.84;104070;1276;61265;-39
2023/11/27 10:10:28;;;;;;;3.20;1.30;;;;;;;18.33;52.69;96575.33;104281;1270;61364;-38
2023/11/27 10:13:03;;;;;;;3.90;1.40;;;;;;;18.36;52.97;96580.85;104394;1274;75271;-35
2023/11/27 10:15:37;;;;;;;3.70;1.50;;;;;;;18.41;53.53;96584.39;104405;1275;65023;-36
2023/11/27 10:18:08;;;;;;;5.80;1.50;;;;;;;18.46;53.86;96581.20;104073;1273;75064;-36
2023/11/27 10:20:35;;;;;;;7.80;1.80;;;;;;;18.52;53.95;96575.28;104091;1268;61761;-38
2023/11/27 10:23:02;;;;;;;3.20;1.70;;;;;;;18.57;54.10;96571.69;104400;1270;61373;-37
2023/11/27 10:25:29;;;;;;;6.00;1.70;;;;;;;18.61;54.16;96572.19;104225;1273;75545;-37
2023/11/27 10:28:03;;;;;;;2.80;1.50;;;;;;;18.65;54.23;96573.85;104410;1271;66103;-36
2023/11/27 10:30:30;;;;;;;1.90;1.40;;;;;;;18.69;54.19;96567.52;104219;1273;72535;-37
2023/11/27 10:32:59;;;;;;;4.50;1.50;;;;;;;18.73;54.06;96574.83;104733;1281;61658;-38
2023/11/27 10:35:26;;;;;;;3.20;1.40;;;;;;;18.77;54.13;96568.81;104375;1272;61376;-37
2023/11/27 10:37:57;;;;;;;2.80;1.20;;;;;;;18.80;54.18;96570.39;104568;1272;74569;-36
2023/11/27 10:40:27;;;;;;;3.00;1.40;;;;;;;18.83;54.10;96567.70;104187;1273;66373;-35
2023/11/27 10:42:59;;;;;;;2.50;1.60;;;;;;;18.85;54.18;96570.27;104561;1282;73729;-35
2023/11/27 10:45:28;;;;;;;2.00;1.50;;;;;;;18.88;54.03;96575.17;104272;1272;61284;-37
2023/11/27 10:47:56;;;;;;;2.40;1.40;;;;;;;18.90;54.07;96570.77;104460;1273;61221;-38
2023/11/27 10:50:23;;;;;;;3.80;1.50;;;;;;;18.92;54.09;96571.09;104196;1270;75284;-36
2023/11/27 10:52:49;;;;;;;2.60;1.50;;;;;;;18.94;53.95;96570.10;103940;1273;66182;-36
2023/11/27 10:55:17;;;;;;;2.20;1.30;;;;;;;18.95;53.93;96571.73;104234;1273;73764;-37
2023/11/27 10:57:45;;;;;;;3.50;1.30;;;;;;;18.98;53.81;96573.06;104325;1272;61323;-37
2023/11/27 11:00:28;;;;;;;2.70;1.20;;;;;;;19.00;53.64;96573.40;104252;1273;61328;-37
2023/11/27 11:03:07;;;;;;;2.80;1.30;;;;;;;19.01;53.70;96578.83;106618;1268;75754;-34
2023/11/27 11:05:41;;;;;;;2.40;1.20;;;;;;;19.03;53.62;96575.67;104364;1270;65467;-47
2023/11/27 11:08:09;;;;;;;3.30;1.60;;;;;;;19.05;53.62;96575.20;104034;1270;73699;-36
2023/11/27 11:10:36;;;;;;;2.50;1.80;;;;;;;19.07;53.68;96577.23;104422;1274;61372;-36
2023/11/27 11:13:07;;;;;;;3.00;1.60;;;;;;;19.10;53.79;96576.40;104142;1269;61289;-35
2023/11/27 11:15:44;;;;;;;2.70;1.70;;;;;;;19.13;53.86;96571.21;104979;1270;74335;-42
2023/11/27 11:18:12;;;;;;;5.20;1.80;;;;;;;19.16;53.92;96573.56;104339;1274;64911;-42
2023/11/27 11:21:00;;;;;;;2.60;1.70;;;;;;;19.19;53.93;96576.05;104221;1273;73743;-39
2023/11/27 11:23:29;;;;;;;5.50;1.70;;;;;;;19.21;53.80;96581.11;104233;1270;61373;-42
2023/11/27 11:26:32;;;;;;;5.00;1.80;;;;;;;19.22;53.60;96586.77;104305;1269;61374;-36
2023/11/27 11:29:11;;;;;;;4.50;1.90;;;;;;;19.23;53.45;96590.90;104540;1270;74506;-39